Time;durP1;ratioP1;P1;durP2;ratioP2;P2;SDS_P1;SDS_P2;PMS_P1;PMS_P2;Temp;Humidity;BMP_temperature;BMP_pressure;BME280_temperature;BME280_humidity;BME280_pressure;Samples;Min_cycle;Max_cycle;Signal;HPM_P1;HPM_P2
2022/01/02 00:00:30;;;;;;;7.25;4.25;;;;;;;;;;5114239;28;20186;-60
2022/01/02 00:02:59;;;;;;;7.80;4.30;;;;;;;;;;5114231;28;20170;-60
2022/01/02 00:05:26;;;;;;;6.32;4.35;;;;;;;;;;5113849;28;20197;-61
2022/01/02 00:07:52;;;;;;;9.32;4.40;;;;;;;;;;5114574;28;20166;-61
2022/01/02 00:10:20;;;;;;;6.45;4.22;;;;;;;;;;5114052;28;20491;-61
2022/01/02 00:12:50;;;;;;;10.15;4.53;;;;;;;;;;5114103;28;20209;-61
2022/01/02 00:15:16;;;;;;;8.90;4.40;;;;;;;;;;5114110;28;20163;-58
2022/01/02 00:17:43;;;;;;;7.43;4.18;;;;;;;;;;5114589;28;20159;-59
2022/01/02 00:20:12;;;;;;;11.45;3.88;;;;;;;;;;5115101;28;20163;-60
2022/01/02 00:22:40;;;;;;;7.00;4.03;;;;;;;;;;5114004;28;20503;-60
2022/01/02 00:25:14;;;;;;;5.97;3.75;;;;;;;;;;5114480;28;20303;-59
2022/01/02 00:27:40;;;;;;;5.88;3.85;;;;;;;;;;5114600;28;20148;-60
2022/01/02 00:30:07;;;;;;;8.18;4.18;;;;;;;;;;5113917;28;20205;-62
2022/01/02 00:32:33;;;;;;;8.45;3.95;;;;;;;;;;5113794;28;20562;-61
2022/01/02 00:35:00;;;;;;;8.63;4.18;;;;;;;;;;5113880;28;20163;-61
2022/01/02 00:37:26;;;;;;;11.50;4.55;;;;;;;;;;5114255;28;20471;-61
2022/01/02 00:39:52;;;;;;;5.38;3.70;;;;;;;;;;5114284;28;20169;-61
2022/01/02 00:42:36;;;;;;;8.98;3.60;;;;;;;;;;5113943;28;20553;-60
2022/01/02 00:45:20;;;;;;;6.65;3.80;;;;;;;;;;5113775;28;20489;-61
2022/01/02 00:47:49;;;;;;;6.88;3.72;;;;;;;;;;5113873;28;20159;-60
2022/01/02 00:50:16;;;;;;;8.88;3.72;;;;;;;;;;5113882;28;20616;-60
2022/01/02 00:52:43;;;;;;;7.05;3.58;;;;;;;;;;5113886;28;20163;-61
2022/01/02 00:55:30;;;;;;;7.45;3.58;;;;;;;;;;5114219;28;20162;-60
2022/01/02 00:57:57;;;;;;;10.00;3.90;;;;;;;;;;5117065;28;20167;-60
2022/01/02 01:00:24;;;;;;;10.73;4.40;;;;;;;;;;5117052;28;20510;-59
2022/01/02 01:02:53;;;;;;;7.53;3.85;;;;;;;;;;5117172;28;20227;-60
2022/01/02 01:05:30;;;;;;;7.85;4.13;;;;;;;;;;5117262;28;20231;-60
2022/01/02 01:07:57;;;;;;;8.77;4.20;;;;;;;;;;5117077;28;20231;-61
2022/01/02 01:10:24;;;;;;;7.78;3.65;;;;;;;;;;5117844;28;20167;-60
2022/01/02 01:12:54;;;;;;;7.18;3.83;;;;;;;;;;5117247;28;20155;-60
2022/01/02 01:15:21;;;;;;;7.80;4.07;;;;;;;;;;5117116;28;20239;-61
2022/01/02 01:17:47;;;;;;;9.63;4.60;;;;;;;;;;5117165;28;20178;-61
2022/01/02 01:20:14;;;;;;;6.03;3.67;;;;;;;;;;5117170;28;20269;-60
2022/01/02 01:22:45;;;;;;;7.68;4.43;;;;;;;;;;5117481;28;20178;-61
2022/01/02 01:25:14;;;;;;;6.72;3.70;;;;;;;;;;5116907;28;20281;-61
2022/01/02 01:27:40;;;;;;;7.53;4.20;;;;;;;;;;5117098;28;20159;-61
2022/01/02 01:30:07;;;;;;;9.65;4.40;;;;;;;;;;5116981;28;20159;-61
2022/01/02 01:32:33;;;;;;;8.02;3.70;;;;;;;;;;5117007;28;20251;-61
2022/01/02 01:34:59;;;;;;;8.10;3.45;;;;;;;;;;5116500;28;20594;-61
2022/01/02 01:37:25;;;;;;;8.23;4.20;;;;;;;;;;5116318;28;20466;-60
2022/01/02 01:39:51;;;;;;;7.53;3.50;;;;;;;;;;5116343;28;20199;-59
2022/01/02 01:42:27;;;;;;;8.95;4.10;;;;;;;;;;5116417;28;20246;-61
2022/01/02 01:45:28;;;;;;;6.88;3.95;;;;;;;;;;5116633;28;20155;-61
2022/01/02 01:47:39;;;;;;;4.75;3.30;;;;;;;;;;5116186;28;20224;-61
2022/01/02 01:50:05;;;;;;;5.05;3.50;;;;;;;;;;5098143;28;20206;-61
2022/01/02 01:52:31;;;;;;;6.00;3.45;;;;;;;;;;5116475;28;20255;-61
2022/01/02 01:54:57;;;;;;;6.63;3.30;;;;;;;;;;5116101;28;20194;-61
2022/01/02 01:57:23;;;;;;;6.68;3.53;;;;;;;;;;5116247;28;20171;-59
2022/01/02 01:59:48;;;;;;;5.70;3.17;;;;;;;;;;5116474;28;20245;-59
2022/01/02 02:02:15;;;;;;;7.43;3.08;;;;;;;;;;5116188;28;20209;-61
2022/01/02 02:04:42;;;;;;;7.05;3.80;;;;;;;;;;5116121;28;20155;-61
2022/01/02 02:07:08;;;;;;;5.70;3.05;;;;;;;;;;5115219;28;20573;-61
2022/01/02 02:09:51;;;;;;;4.63;3.30;;;;;;;;;;5116079;28;20182;-61
2022/01/02 02:12:17;;;;;;;5.20;3.15;;;;;;;;;;5116250;28;20155;-61
2022/01/02 02:14:43;;;;;;;4.07;2.90;;;;;;;;;;5116033;28;20163;-61
2022/01/02 02:17:09;;;;;;;4.03;2.88;;;;;;;;;;5115561;28;20167;-60
2022/01/02 02:19:35;;;;;;;5.95;3.05;;;;;;;;;;5115578;28;20220;-61
2022/01/02 02:22:03;;;;;;;5.55;3.17;;;;;;;;;;5115943;28;20265;-61
2022/01/02 02:24:29;;;;;;;4.13;2.72;;;;;;;;;;5116139;28;20175;-61
2022/01/02 02:26:55;;;;;;;6.05;3.20;;;;;;;;;;5115436;28;20193;-61
2022/01/02 02:29:21;;;;;;;6.00;3.30;;;;;;;;;;5115786;28;20167;-61
2022/01/02 02:31:47;;;;;;;6.05;2.75;;;;;;;;;;5097212;28;20194;-61
2022/01/02 02:34:12;;;;;;;6.22;2.78;;;;;;;;;;5115669;28;20554;-61
2022/01/02 02:36:38;;;;;;;4.25;2.63;;;;;;;;;;5115288;28;20269;-61
2022/01/02 02:39:04;;;;;;;6.47;2.85;;;;;;;;;;5115328;28;20262;-61
2022/01/02 02:41:34;;;;;;;5.93;2.75;;;;;;;;;;5115386;28;20335;-61
2022/01/02 02:44:10;;;;;;;4.65;2.65;;;;;;;;;;5115706;28;20171;-61
2022/01/02 02:49:20;;;;;;;5.93;2.92;;;;;;;;;;5115531;28;20174;-61
2022/01/02 02:51:57;;;;;;;4.07;2.55;;;;;;;;;;5115324;28;20598;-62
2022/01/02 02:54:27;;;;;;;5.97;3.22;;;;;;;;;;5115527;28;20227;-61
2022/01/02 02:59:19;;;;;;;6.75;2.80;;;;;;;;;;5115245;28;20530;-61
2022/01/02 03:01:45;;;;;;;6.50;2.75;;;;;;;;;;5114839;28;20181;-61
2022/01/02 03:04:11;;;;;;;4.75;2.75;;;;;;;;;;5114829;28;20245;-61
2022/01/02 03:06:37;;;;;;;6.20;3.10;;;;;;;;;;5114872;28;20644;-61
2022/01/02 03:09:08;;;;;;;5.68;2.85;;;;;;;;;;5114660;28;20159;-61
2022/01/02 03:11:35;;;;;;;7.07;3.30;;;;;;;;;;5114685;28;20202;-61
2022/01/02 03:14:01;;;;;;;6.03;3.30;;;;;;;;;;5114509;28;20215;-61
2022/01/02 03:16:27;;;;;;;5.65;2.60;;;;;;;;;;5114791;28;20170;-61
2022/01/02 03:18:54;;;;;;;6.07;3.15;;;;;;;;;;5113798;28;20188;-61
2022/01/02 03:21:20;;;;;;;6.25;3.13;;;;;;;;;;5114748;28;20175;-61
2022/01/02 03:23:46;;;;;;;5.38;3.22;;;;;;;;;;5114399;28;20165;-61
2022/01/02 03:26:12;;;;;;;4.57;3.13;;;;;;;;;;5114248;28;20499;-61
2022/01/02 03:28:38;;;;;;;5.03;3.20;;;;;;;;;;5114590;28;20580;-60
2022/01/02 03:31:04;;;;;;;4.75;3.10;;;;;;;;;;5114426;28;20512;-59
2022/01/02 03:33:30;;;;;;;5.53;3.10;;;;;;;;;;5114526;28;20169;-61
2022/01/02 03:35:56;;;;;;;6.25;3.03;;;;;;;;;;5114590;28;20162;-61
2022/01/02 03:38:22;;;;;;;5.95;2.90;;;;;;;;;;5114434;28;20594;-61
2022/01/02 03:40:48;;;;;;;6.13;3.17;;;;;;;;;;5114512;28;20518;-60
2022/01/02 03:43:14;;;;;;;8.00;4.10;;;;;;;;;;5114305;28;20177;-61
2022/01/02 03:45:40;;;;;;;5.78;3.95;;;;;;;;;;5114188;28;20553;-61
2022/01/02 03:48:06;;;;;;;6.63;3.70;;;;;;;;;;5114115;28;20545;-61
2022/01/02 03:50:32;;;;;;;4.65;3.53;;;;;;;;;;5114090;28;20545;-61
2022/01/02 03:52:57;;;;;;;5.20;3.50;;;;;;;;;;5113920;28;20163;-61
2022/01/02 03:55:23;;;;;;;7.60;3.80;;;;;;;;;;5114213;28;20241;-60
2022/01/02 03:57:49;;;;;;;4.70;3.65;;;;;;;;;;5114061;28;20167;-61
2022/01/02 04:00:16;;;;;;;6.32;3.65;;;;;;;;;;5114007;28;20163;-61
2022/01/02 04:02:42;;;;;;;6.75;3.58;;;;;;;;;;5113979;28;20158;-61
2022/01/02 04:05:09;;;;;;;5.85;3.88;;;;;;;;;;5113768;28;20163;-60
2022/01/02 04:07:36;;;;;;;5.90;3.58;;;;;;;;;;5113866;28;20726;-61
2022/01/02 04:10:05;;;;;;;6.40;4.05;;;;;;;;;;5113846;28;20167;-61
2022/01/02 04:12:31;;;;;;;7.30;3.92;;;;;;;;;;5114152;28;20177;-60
2022/01/02 04:14:57;;;;;;;7.72;4.07;;;;;;;;;;5113965;28;20463;-61
2022/01/02 04:17:23;;;;;;;5.95;3.80;;;;;;;;;;5114207;28;20173;-61
2022/01/02 04:19:50;;;;;;;6.97;3.88;;;;;;;;;;5113838;28;20201;-61
2022/01/02 04:22:15;;;;;;;5.93;3.85;;;;;;;;;;5114100;28;20164;-60
2022/01/02 04:24:41;;;;;;;7.30;4.82;;;;;;;;;;5113791;28;20231;-61
2022/01/02 04:27:07;;;;;;;6.35;3.88;;;;;;;;;;5113603;28;20186;-61
2022/01/02 04:29:33;;;;;;;5.88;4.10;;;;;;;;;;5114084;28;20194;-60
2022/01/02 04:31:59;;;;;;;6.25;4.05;;;;;;;;;;5116861;28;20253;-59
2022/01/02 04:34:25;;;;;;;8.32;4.47;;;;;;;;;;5099759;28;20169;-60
2022/01/02 04:36:52;;;;;;;6.43;4.45;;;;;;;;;;5117823;28;20214;-59
2022/01/02 04:39:18;;;;;;;7.03;4.28;;;;;;;;;;5117658;28;20250;-61
2022/01/02 04:41:44;;;;;;;8.63;4.82;;;;;;;;;;5117611;28;20266;-60
2022/01/02 04:44:10;;;;;;;8.75;4.75;;;;;;;;;;5117357;28;20174;-59
2022/01/02 04:46:36;;;;;;;6.32;4.63;;;;;;;;;;5117322;28;20195;-61
2022/01/02 04:49:02;;;;;;;11.30;4.40;;;;;;;;;;5117228;28;20163;-59
2022/01/02 04:51:28;;;;;;;7.25;4.88;;;;;;;;;;5117610;28;20169;-60
2022/01/02 04:53:54;;;;;;;8.40;5.03;;;;;;;;;;5117191;28;20203;-60
2022/01/02 04:56:20;;;;;;;6.00;4.78;;;;;;;;;;5117222;28;20162;-60
2022/01/02 04:58:46;;;;;;;8.20;4.57;;;;;;;;;;5117329;28;20159;-61
2022/01/02 05:01:12;;;;;;;7.75;4.85;;;;;;;;;;5117359;28;20171;-60
2022/01/02 05:03:42;;;;;;;7.15;4.90;;;;;;;;;;5117228;28;20159;-59
2022/01/02 05:06:08;;;;;;;8.32;4.80;;;;;;;;;;5117106;28;20666;-60
2022/01/02 05:08:34;;;;;;;8.65;5.40;;;;;;;;;;5117390;28;20174;-60
2022/01/02 05:11:00;;;;;;;7.88;5.47;;;;;;;;;;5117635;28;20485;-59
2022/01/02 05:13:26;;;;;;;8.50;5.38;;;;;;;;;;5128690;28;20190;-61
2022/01/02 05:15:52;;;;;;;9.18;5.65;;;;;;;;;;5131058;28;20167;-60
2022/01/02 05:18:18;;;;;;;7.53;5.13;;;;;;;;;;5131585;28;20167;-61
2022/01/02 05:20:46;;;;;;;8.85;5.93;;;;;;;;;;5130959;28;20177;-60
2022/01/02 05:23:12;;;;;;;7.15;4.95;;;;;;;;;;5130145;28;20167;-61
2022/01/02 05:25:38;;;;;;;8.05;5.57;;;;;;;;;;5131636;28;20199;-60
2022/01/02 05:28:04;;;;;;;8.40;5.18;;;;;;;;;;5131334;28;20254;-61
2022/01/02 05:30:30;;;;;;;7.20;5.18;;;;;;;;;;5131447;28;20587;-60
2022/01/02 05:32:56;;;;;;;9.00;5.95;;;;;;;;;;5133833;28;20213;-60
2022/01/02 05:35:22;;;;;;;9.55;5.43;;;;;;;;;;5138048;28;20163;-60
2022/01/02 05:37:48;;;;;;;9.05;5.82;;;;;;;;;;5137839;28;20171;-60
2022/01/02 05:40:14;;;;;;;9.20;5.53;;;;;;;;;;5138134;28;20170;-61
2022/01/02 05:42:40;;;;;;;8.98;5.95;;;;;;;;;;5137271;28;20155;-61
2022/01/02 05:45:06;;;;;;;9.02;5.43;;;;;;;;;;5131737;28;20167;-60
2022/01/02 05:47:32;;;;;;;9.48;6.60;;;;;;;;;;5116199;28;20195;-61
2022/01/02 05:49:58;;;;;;;9.20;5.85;;;;;;;;;;5116178;28;20178;-61
2022/01/02 05:52:24;;;;;;;8.18;5.85;;;;;;;;;;5116282;28;20626;-60
2022/01/02 05:54:50;;;;;;;10.90;6.35;;;;;;;;;;5116537;28;20166;-61
2022/01/02 05:57:16;;;;;;;10.82;6.20;;;;;;;;;;5098122;28;20167;-61
2022/01/02 05:59:42;;;;;;;10.98;6.97;;;;;;;;;;5115943;28;20599;-61
2022/01/02 06:09:40;;;;;;;10.68;6.75;;;;;;;;;;6322935;22;21836;31
2022/01/02 06:16:50;;;;;;;13.75;7.45;;;;;;;;;;5875644;22;20538;-59
2022/01/02 06:26:53;;;;;;;8.55;6.38;;;;;;;;;;6291829;22;20199;31
2022/01/02 06:31:26;;;;;;;8.98;6.63;;;;;;;;;;6181529;22;20546;-60
2022/01/02 06:33:52;;;;;;;10.57;6.60;;;;;;;;;;6156988;23;20189;31
2022/01/02 06:52:40;;;;;;;10.98;6.43;;;;;;;;;;6233266;22;20866;31
2022/01/02 07:00:06;;;;;;;10.57;7.13;;;;;;;;;;6231566;22;20520;31
2022/01/02 07:09:57;;;;;;;8.63;5.88;;;;;;;;;;6345544;22;20536;-59
2022/01/02 07:14:48;;;;;;;8.23;6.88;;;;;;;;;;6326421;22;20603;31
2022/01/02 07:17:20;;;;;;;9.05;6.40;;;;;;;;;;6261733;22;20190;31
2022/01/02 07:21:53;;;;;;;13.32;6.80;;;;;;;;;;6195491;22;20563;31
2022/01/02 07:24:19;;;;;;;9.20;6.20;;;;;;;;;;6168108;23;20244;31
2022/01/02 07:31:18;;;;;;;7.32;5.55;;;;;;;;;;6145246;23;20211;31
2022/01/02 07:38:08;;;;;;;9.55;6.38;;;;;;;;;;6206907;22;20210;31
2022/01/02 07:42:31;;;;;;;9.00;6.10;;;;;;;;;;6168283;22;20522;-59
2022/01/02 07:49:23;;;;;;;6.63;5.10;;;;;;;;;;5930369;22;21604;31
2022/01/02 07:51:51;;;;;;;7.43;5.60;;;;;;;;;;5749739;23;20197;31
2022/01/02 07:59:08;;;;;;;6.40;4.68;;;;;;;;;;6343533;22;20202;31
2022/01/02 08:04:00;;;;;;;6.63;5.10;;;;;;;;;;5871291;22;24891;31
2022/01/02 08:13:43;;;;;;;4.85;4.07;;;;;;;;;;6290560;22;20200;31
2022/01/02 08:18:35;;;;;;;5.55;4.32;;;;;;;;;;6263751;22;20846;31
2022/01/02 08:28:29;;;;;;;4.78;3.67;;;;;;;;;;6198311;22;20202;31
2022/01/02 08:33:03;;;;;;;5.07;3.95;;;;;;;;;;5891787;22;20578;31
2022/01/02 08:40:24;;;;;;;4.45;3.65;;;;;;;;;;6259953;22;20610;31
2022/01/02 08:58:04;;;;;;;4.75;4.10;;;;;;;;;;6345789;22;20998;-60
2022/01/02 09:02:51;;;;;;;4.93;4.20;;;;;;;;;;6292114;22;20539;31
2022/01/02 09:09:54;;;;;;;4.40;3.83;;;;;;;;;;6260745;22;21420;31
2022/01/02 09:12:21;;;;;;;6.45;4.35;;;;;;;;;;6198161;22;20183;31
2022/01/02 09:19:37;;;;;;;4.60;4.10;;;;;;;;;;5691178;22;20208;31
2022/01/02 09:26:55;;;;;;;5.72;4.30;;;;;;;;;;6143915;23;20203;31
2022/01/02 09:47:19;;;;;;;4.80;3.67;;;;;;;;;;6256743;22;20205;31
2022/01/02 10:00:36;;;;;;;4.78;4.25;;;;;;;;;;6230089;22;20543;31
2022/01/02 10:07:28;;;;;;;5.10;3.58;;;;;;;;;;6169352;22;20526;31
2022/01/02 10:17:24;;;;;;;4.40;4.00;;;;;;;;;;5785176;22;20207;31
2022/01/02 10:25:00;;;;;;;3.70;3.13;;;;;;;;;;6287449;22;20852;31
2022/01/02 10:31:53;;;;;;;3.47;2.75;;;;;;;;;;6262745;22;20197;31
2022/01/02 10:39:23;;;;;;;4.90;3.28;;;;;;;;;;6342194;22;20199;31
2022/01/02 10:46:16;;;;;;;4.63;2.78;;;;;;;;;;6197156;22;20222;31
2022/01/02 10:53:18;;;;;;;3.58;3.22;;;;;;;;;;5402223;22;20316;-60
2022/01/02 10:55:45;;;;;;;4.00;2.83;;;;;;;;;;5051177;28;20189;-60
2022/01/02 10:58:11;;;;;;;4.53;2.83;;;;;;;;;;5050921;28;20183;-61
2022/01/02 11:00:38;;;;;;;4.13;3.30;;;;;;;;;;5051107;28;20173;-60
2022/01/02 11:03:05;;;;;;;4.38;3.08;;;;;;;;;;5050831;28;20173;-60
2022/01/02 11:05:31;;;;;;;4.25;3.15;;;;;;;;;;5051390;28;20200;-60
2022/01/02 11:07:59;;;;;;;6.03;3.17;;;;;;;;;;5050975;28;20188;-59
2022/01/02 11:10:27;;;;;;;4.93;3.40;;;;;;;;;;5050892;28;20200;-59
2022/01/02 11:12:54;;;;;;;5.55;3.05;;;;;;;;;;5050867;28;20165;-59
2022/01/02 11:15:21;;;;;;;4.38;3.58;;;;;;;;;;5050921;28;20169;-59
2022/01/02 11:17:47;;;;;;;5.05;2.85;;;;;;;;;;5033223;28;20172;-61
2022/01/02 11:20:17;;;;;;;4.57;3.17;;;;;;;;;;5050395;28;20169;-60
2022/01/02 11:22:53;;;;;;;4.63;3.13;;;;;;;;;;5050287;28;20225;-60
2022/01/02 11:25:22;;;;;;;5.63;3.60;;;;;;;;;;5046274;28;20269;-60
2022/01/02 11:27:51;;;;;;;6.30;4.00;;;;;;;;;;5012923;28;20621;-60
2022/01/02 11:30:33;;;;;;;5.97;4.20;;;;;;;;;;5030680;28;20531;-60
2022/01/02 11:33:03;;;;;;;7.97;4.28;;;;;;;;;;5012845;28;20197;-60
2022/01/02 11:35:32;;;;;;;9.85;4.72;;;;;;;;;;5030324;28;20215;-60
2022/01/02 11:38:02;;;;;;;7.72;4.20;;;;;;;;;;5030160;28;20158;-60
2022/01/02 11:40:42;;;;;;;6.72;4.25;;;;;;;;;;5030059;28;20492;-60
2022/01/02 11:43:08;;;;;;;5.07;3.58;;;;;;;;;;5030519;28;20165;-60
2022/01/02 11:45:41;;;;;;;5.75;3.92;;;;;;;;;;5030140;28;20170;-60
2022/01/02 11:48:27;;;;;;;6.25;3.80;;;;;;;;;;5030463;28;20170;-60
2022/01/02 11:50:53;;;;;;;7.97;3.60;;;;;;;;;;5030117;28;20188;-60
2022/01/02 11:53:23;;;;;;;5.63;3.33;;;;;;;;;;5029942;28;20169;-60
2022/01/02 11:55:50;;;;;;;6.32;3.42;;;;;;;;;;5030169;28;20164;-60
2022/01/02 11:58:35;;;;;;;4.88;3.17;;;;;;;;;;5012311;28;20256;-60
2022/01/02 12:01:01;;;;;;;4.97;2.78;;;;;;;;;;5022613;28;20389;-60
2022/01/02 12:03:46;;;;;;;6.72;2.97;;;;;;;;;;5016938;28;20174;-61
2022/01/02 12:06:23;;;;;;;3.47;2.75;;;;;;;;;;4999304;28;20473;-60
2022/01/02 12:08:50;;;;;;;6.38;2.80;;;;;;;;;;5016777;28;20263;-60
2022/01/02 12:11:31;;;;;;;4.82;2.55;;;;;;;;;;5016928;28;20170;-59
2022/01/02 12:14:04;;;;;;;6.90;3.85;;;;;;;;;;5016662;28;20494;-59
2022/01/02 12:16:34;;;;;;;4.63;2.53;;;;;;;;;;5017098;28;20260;-60
2022/01/02 12:19:01;;;;;;;6.28;2.38;;;;;;;;;;5016435;28;20185;-59
2022/01/02 12:21:27;;;;;;;12.32;3.38;;;;;;;;;;5016568;28;20167;-60
2022/01/02 12:23:53;;;;;;;3.63;2.67;;;;;;;;;;5016642;28;20180;-59
2022/01/02 12:26:21;;;;;;;6.45;2.65;;;;;;;;;;5016567;28;20171;-60
2022/01/02 12:28:56;;;;;;;6.32;2.63;;;;;;;;;;5016134;28;20204;-60
2022/01/02 12:31:25;;;;;;;6.20;2.58;;;;;;;;;;5016486;28;20159;-60
2022/01/02 12:33:51;;;;;;;5.28;2.45;;;;;;;;;;5016099;28;20170;-60
2022/01/02 12:36:21;;;;;;;4.57;2.53;;;;;;;;;;5016830;28;20471;-59
2022/01/02 12:38:48;;;;;;;4.45;2.35;;;;;;;;;;5016174;28;20170;-58
2022/01/02 12:41:15;;;;;;;5.57;2.35;;;;;;;;;;5016228;28;20175;-59
2022/01/02 12:43:50;;;;;;;4.93;2.30;;;;;;;;;;5016217;28;20229;-59
2022/01/02 12:46:31;;;;;;;4.55;2.60;;;;;;;;;;5016507;28;20162;-60
2022/01/02 12:48:57;;;;;;;4.30;2.88;;;;;;;;;;5023936;28;20273;-60
2022/01/02 12:51:28;;;;;;;5.22;2.90;;;;;;;;;;5028628;28;20169;-60
2022/01/02 12:54:00;;;;;;;7.30;2.35;;;;;;;;;;5028327;28;20178;-60
2022/01/02 12:56:30;;;;;;;6.15;2.50;;;;;;;;;;5029155;28;20234;-61
2022/01/02 12:59:11;;;;;;;6.47;2.63;;;;;;;;;;5028158;28;20224;-62
2022/01/02 13:01:47;;;;;;;5.57;2.45;;;;;;;;;;5028781;28;20185;-61
2022/01/02 13:04:13;;;;;;;4.93;2.78;;;;;;;;;;5028623;28;20182;-61
2022/01/02 13:06:39;;;;;;;4.75;2.65;;;;;;;;;;5028752;28;20621;-61
2022/01/02 13:09:04;;;;;;;4.57;2.50;;;;;;;;;;5032867;28;20258;-61
2022/01/02 13:11:37;;;;;;;5.75;2.42;;;;;;;;;;5015819;28;20700;-61
2022/01/02 13:14:03;;;;;;;6.30;3.30;;;;;;;;;;5033357;28;20197;-60
2022/01/02 13:16:29;;;;;;;6.10;2.65;;;;;;;;;;5036285;28;20178;-61
2022/01/02 13:18:56;;;;;;;4.05;2.40;;;;;;;;;;5030391;28;20253;-62
2022/01/02 13:21:22;;;;;;;6.35;2.67;;;;;;;;;;5015433;28;20170;-61
2022/01/02 13:23:48;;;;;;;4.97;2.85;;;;;;;;;;5015211;28;20249;-61
2022/01/02 13:26:20;;;;;;;5.85;2.75;;;;;;;;;;5015279;28;20198;-59
2022/01/02 13:28:47;;;;;;;5.35;2.83;;;;;;;;;;5015171;28;20208;-61
2022/01/02 13:31:13;;;;;;;7.35;3.40;;;;;;;;;;5015161;28;20246;-60
2022/01/02 13:33:45;;;;;;;3.85;2.70;;;;;;;;;;5015070;28;20198;-60
2022/01/02 13:36:15;;;;;;;7.93;3.20;;;;;;;;;;5015156;28;20150;-60
2022/01/02 13:38:50;;;;;;;3.80;2.78;;;;;;;;;;5014754;28;20688;-60
2022/01/02 13:41:16;;;;;;;5.78;3.15;;;;;;;;;;5014676;28;20224;-58
2022/01/02 13:43:42;;;;;;;6.13;3.33;;;;;;;;;;5014595;28;20174;-60
2022/01/02 13:46:08;;;;;;;4.30;2.88;;;;;;;;;;5015382;28;20232;-60
2022/01/02 13:48:35;;;;;;;6.70;3.35;;;;;;;;;;5016462;28;20712;-60
2022/01/02 13:51:01;;;;;;;8.93;3.53;;;;;;;;;;5015123;28;20205;-59
2022/01/02 13:53:27;;;;;;;4.30;2.60;;;;;;;;;;5014307;28;20181;-60
2022/01/02 13:55:54;;;;;;;3.00;2.30;;;;;;;;;;5014536;28;20173;-61
2022/01/02 13:58:25;;;;;;;3.55;2.30;;;;;;;;;;5014682;28;20533;-58
2022/01/02 14:00:53;;;;;;;2.88;2.22;;;;;;;;;;5015656;28;20162;-60
2022/01/02 14:03:29;;;;;;;5.93;2.83;;;;;;;;;;5014566;28;20170;-59
2022/01/02 14:05:55;;;;;;;3.67;2.47;;;;;;;;;;5014322;28;20696;-59
2022/01/02 14:08:21;;;;;;;5.38;3.10;;;;;;;;;;5014294;28;20170;-60
2022/01/02 14:11:01;;;;;;;5.25;3.35;;;;;;;;;;5014206;28;20496;-62
2022/01/02 14:13:27;;;;;;;4.82;3.30;;;;;;;;;;5014621;28;20249;-63
2022/01/02 14:16:00;;;;;;;4.25;3.30;;;;;;;;;;5014530;28;20194;-61
2022/01/02 14:18:29;;;;;;;6.05;3.67;;;;;;;;;;5014493;28;20167;-62
2022/01/02 14:21:01;;;;;;;5.50;3.70;;;;;;;;;;5014326;28;20228;-61
2022/01/02 14:23:28;;;;;;;9.77;4.13;;;;;;;;;;5014196;28;20573;-62
2022/01/02 14:25:54;;;;;;;6.40;3.83;;;;;;;;;;5014432;28;20223;-60
2022/01/02 14:28:20;;;;;;;6.57;3.95;;;;;;;;;;5014513;28;20500;-60
2022/01/02 14:30:48;;;;;;;6.93;4.22;;;;;;;;;;5015064;28;20717;-59
2022/01/02 14:33:14;;;;;;;5.65;4.25;;;;;;;;;;5014029;28;20224;-60
2022/01/02 14:35:40;;;;;;;6.70;4.60;;;;;;;;;;5014143;28;20203;-60
2022/01/02 14:38:06;;;;;;;5.78;4.40;;;;;;;;;;5014104;28;20228;-60
2022/01/02 14:40:32;;;;;;;10.30;4.25;;;;;;;;;;5014464;28;20206;-60
2022/01/02 14:42:58;;;;;;;8.57;4.43;;;;;;;;;;5014282;28;20189;-59
2022/01/02 14:45:24;;;;;;;8.95;4.22;;;;;;;;;;5013864;28;20221;-61
2022/01/02 14:47:51;;;;;;;7.05;4.70;;;;;;;;;;5014438;28;20178;-61
2022/01/02 14:50:17;;;;;;;7.00;4.50;;;;;;;;;;5013774;28;20189;-61
2022/01/02 14:52:43;;;;;;;6.75;4.18;;;;;;;;;;5013768;28;20178;-61
2022/01/02 14:55:12;;;;;;;8.38;4.85;;;;;;;;;;5013901;28;20185;-61
2022/01/02 14:57:38;;;;;;;6.88;4.57;;;;;;;;;;5014284;28;20177;-61
2022/01/02 15:00:06;;;;;;;6.05;4.55;;;;;;;;;;5013583;28;20498;-61
2022/01/02 15:02:31;;;;;;;9.00;5.40;;;;;;;;;;5013606;28;20259;-60
2022/01/02 15:04:57;;;;;;;10.60;4.95;;;;;;;;;;5013611;28;20174;-60
2022/01/02 15:07:23;;;;;;;8.02;4.85;;;;;;;;;;5013758;28;20197;-61
2022/01/02 15:09:50;;;;;;;10.18;4.70;;;;;;;;;;5013538;28;20198;-60
2022/01/02 15:12:16;;;;;;;8.50;4.85;;;;;;;;;;5013779;28;20228;-60
2022/01/02 15:14:42;;;;;;;9.10;4.90;;;;;;;;;;5013598;28;20618;-60
2022/01/02 15:17:08;;;;;;;8.45;4.70;;;;;;;;;;5013909;28;20273;-60
2022/01/02 15:19:34;;;;;;;7.28;5.00;;;;;;;;;;5013532;28;20174;-61
2022/01/02 15:22:00;;;;;;;9.60;5.22;;;;;;;;;;5013329;28;20170;-60
2022/01/02 15:24:26;;;;;;;7.78;4.93;;;;;;;;;;5013226;28;20205;-62
2022/01/02 15:26:53;;;;;;;7.25;5.00;;;;;;;;;;5013640;28;20181;-60
2022/01/02 15:29:19;;;;;;;12.10;5.30;;;;;;;;;;5013549;28;20596;-60
2022/01/02 15:31:45;;;;;;;8.32;4.88;;;;;;;;;;5013366;28;20170;-59
2022/01/02 15:34:11;;;;;;;7.88;4.90;;;;;;;;;;5013448;28;20170;-60
2022/01/02 15:36:37;;;;;;;6.60;4.65;;;;;;;;;;5015975;28;20269;-60
2022/01/02 15:39:04;;;;;;;9.55;5.40;;;;;;;;;;5017376;28;20208;-60
2022/01/02 15:41:31;;;;;;;5.50;4.43;;;;;;;;;;5017050;28;20185;-60
2022/01/02 15:43:57;;;;;;;7.93;4.60;;;;;;;;;;5017283;28;20170;-61
2022/01/02 15:46:23;;;;;;;6.90;4.82;;;;;;;;;;5016987;28;20590;-61
2022/01/02 15:48:49;;;;;;;6.75;4.82;;;;;;;;;;5017353;28;20200;-60
2022/01/02 15:51:14;;;;;;;7.95;4.65;;;;;;;;;;5016730;28;20166;-60
2022/01/02 15:53:40;;;;;;;7.35;4.53;;;;;;;;;;5016862;28;20186;-61
2022/01/02 15:56:06;;;;;;;5.55;4.45;;;;;;;;;;5016642;28;20167;-60
2022/01/02 15:58:32;;;;;;;8.18;4.10;;;;;;;;;;5016700;28;20177;-61
2022/01/02 16:00:58;;;;;;;8.55;4.60;;;;;;;;;;5016769;28;20170;-60
2022/01/02 16:03:24;;;;;;;5.60;4.32;;;;;;;;;;5017152;28;20186;-61
2022/01/02 16:05:53;;;;;;;7.63;4.20;;;;;;;;;;5016624;28;20636;-61
2022/01/02 16:08:20;;;;;;;4.97;4.18;;;;;;;;;;5016993;28;20170;-61
2022/01/02 16:10:48;;;;;;;7.22;5.10;;;;;;;;;;5016460;28;20194;-61
2022/01/02 16:13:14;;;;;;;7.00;4.55;;;;;;;;;;5016736;28;20170;-61
2022/01/02 16:15:40;;;;;;;7.82;5.10;;;;;;;;;;5016614;28;20614;-60
2022/01/02 16:18:06;;;;;;;8.48;4.95;;;;;;;;;;5016957;28;20171;-61
2022/01/02 16:20:32;;;;;;;7.65;5.25;;;;;;;;;;5016100;28;20632;-61
2022/01/02 16:22:58;;;;;;;7.45;5.05;;;;;;;;;;5016292;28;20614;-60
2022/01/02 16:25:24;;;;;;;6.18;4.95;;;;;;;;;;5016228;28;20192;-61
2022/01/02 16:27:54;;;;;;;5.15;4.65;;;;;;;;;;5016336;28;20174;-61
2022/01/02 16:30:19;;;;;;;5.65;4.53;;;;;;;;;;5015945;28;20197;-60
2022/01/02 16:32:45;;;;;;;4.95;4.20;;;;;;;;;;5016019;28;20162;-61
2022/01/02 16:35:11;;;;;;;6.68;3.92;;;;;;;;;;5016513;28;20606;-61
2022/01/02 16:37:39;;;;;;;6.88;3.83;;;;;;;;;;5016079;28;20166;-61
2022/01/02 16:40:08;;;;;;;5.63;3.10;;;;;;;;;;5016378;28;20229;-61
2022/01/02 16:42:35;;;;;;;4.88;3.13;;;;;;;;;;5015884;28;20829;-60
2022/01/02 16:45:01;;;;;;;3.85;2.60;;;;;;;;;;5016001;28;20166;-60
2022/01/02 16:47:27;;;;;;;6.20;3.00;;;;;;;;;;5015735;28;20174;-62
2022/01/02 16:49:53;;;;;;;3.53;2.70;;;;;;;;;;5015776;28;20289;-60
2022/01/02 16:52:19;;;;;;;3.53;2.50;;;;;;;;;;5015581;28;20166;-60
2022/01/02 16:54:44;;;;;;;3.78;2.17;;;;;;;;;;5015729;28;20171;-60
2022/01/02 16:57:10;;;;;;;5.57;2.20;;;;;;;;;;5015636;28;20198;-61
2022/01/02 16:59:37;;;;;;;3.05;2.30;;;;;;;;;;5015670;28;20185;-61
2022/01/02 17:02:03;;;;;;;3.45;2.30;;;;;;;;;;5015834;28;20162;-59
2022/01/02 17:04:29;;;;;;;4.70;1.98;;;;;;;;;;5015878;28;20189;-61
2022/01/02 17:06:55;;;;;;;4.70;2.00;;;;;;;;;;5015240;28;20267;-61
2022/01/02 17:09:21;;;;;;;3.22;1.63;;;;;;;;;;5015508;28;20283;-61
2022/01/02 17:11:50;;;;;;;1.92;1.30;;;;;;;;;;5015243;28;20717;-60
2022/01/02 17:14:17;;;;;;;3.47;1.83;;;;;;;;;;5015722;28;20184;-61
2022/01/02 17:16:42;;;;;;;2.53;1.30;;;;;;;;;;5015585;28;20169;-62
2022/01/02 17:19:10;;;;;;;3.53;1.10;;;;;;;;;;5015376;28;20249;-60
2022/01/02 17:21:36;;;;;;;3.05;0.88;;;;;;;;;;5015285;28;20166;-61
2022/01/02 17:24:02;;;;;;;2.72;0.90;;;;;;;;;;5015712;28;20184;-61
2022/01/02 17:26:29;;;;;;;1.55;1.02;;;;;;;;;;5015012;28;20170;-61
2022/01/02 17:28:55;;;;;;;3.28;0.90;;;;;;;;;;5015264;28;20193;-61
2022/01/02 17:31:21;;;;;;;1.35;0.60;;;;;;;;;;5015090;28;20589;-61
2022/01/02 17:33:49;;;;;;;2.10;0.77;;;;;;;;;;5015257;28;20238;-61
2022/01/02 17:36:15;;;;;;;2.30;0.70;;;;;;;;;;5014978;28;20170;-61
2022/01/02 17:38:41;;;;;;;1.98;0.75;;;;;;;;;;5014716;28;20261;-61
2022/01/02 17:41:07;;;;;;;5.68;1.00;;;;;;;;;;5015033;28;20166;-60
2022/01/02 17:43:33;;;;;;;2.60;0.85;;;;;;;;;;5014972;28;20595;-60
2022/01/02 17:45:59;;;;;;;5.18;0.93;;;;;;;;;;5015072;28;20181;-60
2022/01/02 17:48:25;;;;;;;2.47;0.80;;;;;;;;;;5014953;28;20198;-60
2022/01/02 17:50:51;;;;;;;5.00;1.00;;;;;;;;;;5014613;28;20610;-61
2022/01/02 17:53:17;;;;;;;3.05;0.70;;;;;;;;;;5014875;28;20235;-61
2022/01/02 17:55:43;;;;;;;6.13;1.63;;;;;;;;;;5015103;28;20210;-61
2022/01/02 17:58:09;;;;;;;3.63;1.15;;;;;;;;;;5014201;28;20533;-61
2022/01/02 18:00:35;;;;;;;3.70;1.00;;;;;;;;;;5014469;28;20267;-60
2022/01/02 18:03:01;;;;;;;4.85;2.35;;;;;;;;;;5014558;28;20185;-61
2022/01/02 18:05:27;;;;;;;2.60;1.02;;;;;;;;;;5014882;28;20166;-60
2022/01/02 18:07:53;;;;;;;3.47;0.85;;;;;;;;;;5014442;28;20542;-60